createdAt,value
2023-04-09T00:01:31.304Z,8.46
2023-04-09T00:03:59.146Z,8.48
2023-04-09T00:06:27.234Z,8.50
2023-04-09T00:08:55.011Z,8.53
2023-04-09T00:11:22.786Z,8.54
2023-04-09T00:13:51.907Z,8.55
2023-04-09T00:16:19.734Z,8.55
2023-04-09T00:18:47.459Z,8.57
2023-04-09T00:21:16.171Z,8.60
2023-04-09T00:23:44.182Z,8.58
2023-04-09T00:26:12.204Z,8.61
2023-04-09T00:28:40.006Z,8.59
2023-04-09T00:31:09.845Z,8.59
2023-04-09T00:33:37.674Z,8.61
2023-04-09T00:36:06.076Z,8.62
2023-04-09T00:38:33.827Z,8.62
2023-04-09T00:41:01.570Z,8.62
2023-04-09T00:43:29.954Z,8.62
2023-04-09T00:45:59.302Z,8.62
2023-04-09T00:48:28.545Z,8.61
2023-04-09T00:50:56.297Z,8.62
2023-04-09T00:53:24.054Z,8.62
2023-04-09T00:55:51.818Z,8.65
2023-04-09T00:58:19.632Z,8.64
2023-04-09T01:00:47.488Z,8.65
2023-04-09T01:03:15.695Z,8.64
2023-04-09T01:05:55.406Z,8.66
2023-04-09T01:08:34.503Z,8.68
2023-04-09T01:11:13.213Z,8.69
2023-04-09T01:13:47.189Z,8.70
2023-04-09T01:16:17.998Z,8.72
2023-04-09T01:18:53.845Z,8.72
2023-04-09T01:21:27.497Z,8.73
2023-04-09T01:24:01.097Z,8.73
2023-04-09T01:26:47.001Z,8.75
2023-04-09T01:29:17.633Z,8.75
2023-04-09T01:31:46.511Z,8.75
2023-04-09T01:34:15.895Z,8.77
2023-04-09T01:36:47.484Z,8.77
2023-04-09T01:39:15.433Z,8.80
2023-04-09T01:41:44.231Z,8.79
2023-04-09T01:44:13.562Z,8.80
2023-04-09T01:46:43.005Z,8.79
2023-04-09T01:49:12.065Z,8.82
2023-04-09T01:51:40.137Z,8.82
2023-04-09T01:54:07.910Z,8.83
2023-04-09T01:56:42.817Z,8.84
2023-04-09T01:59:10.744Z,8.86
2023-04-09T02:01:43.128Z,8.84
2023-04-09T02:04:18.808Z,8.85
2023-04-09T02:06:52.025Z,8.89
2023-04-09T02:09:22.465Z,8.83
2023-04-09T02:11:51.957Z,8.85
2023-04-09T02:14:20.158Z,8.88
2023-04-09T02:16:47.952Z,8.90
2023-04-09T02:19:17.054Z,8.93
2023-04-09T02:21:45.139Z,8.95
2023-04-09T02:24:12.865Z,8.98
2023-04-09T02:26:40.625Z,8.95
2023-04-09T02:29:08.365Z,8.99
2023-04-09T02:31:36.321Z,9.02
2023-04-09T02:34:04.187Z,9.02
2023-04-09T02:36:33.306Z,9.04
2023-04-09T02:39:01.095Z,9.04
2023-04-09T02:41:28.840Z,9.03
2023-04-09T02:43:56.552Z,9.04
2023-04-09T02:46:24.347Z,9.05
2023-04-09T02:48:52.244Z,9.05
2023-04-09T02:51:21.073Z,9.06
2023-04-09T02:53:50.157Z,9.06
2023-04-09T02:56:17.881Z,9.03
2023-04-09T02:58:45.602Z,9.05
2023-04-09T03:01:13.413Z,9.07
2023-04-09T03:03:42.402Z,9.09
2023-04-09T03:06:10.560Z,9.10
2023-04-09T03:08:38.273Z,9.07
2023-04-09T03:11:07.383Z,9.06
2023-04-09T03:13:35.105Z,9.08
2023-04-09T03:16:02.872Z,9.09
2023-04-09T03:18:30.620Z,9.07
2023-04-09T03:20:58.375Z,9.05
2023-04-09T03:23:26.119Z,9.05
2023-04-09T03:26:02.009Z,9.08
2023-04-09T03:28:31.542Z,9.07
2023-04-09T03:30:59.376Z,9.07
2023-04-09T03:33:27.190Z,9.11
2023-04-09T03:35:55.046Z,9.10
2023-04-09T03:38:22.928Z,9.07
2023-04-09T03:40:50.655Z,9.08
2023-04-09T03:43:18.472Z,9.08
2023-04-09T03:45:47.556Z,9.06
2023-04-09T03:48:15.497Z,9.03
2023-04-09T03:50:43.469Z,9.05
2023-04-09T03:53:11.195Z,9.06
2023-04-09T03:55:39.083Z,9.03
2023-04-09T03:58:06.829Z,9.01
2023-04-09T04:00:34.567Z,9.02
2023-04-09T04:03:03.947Z,9.01
2023-04-09T04:05:31.875Z,9.02
2023-04-09T04:07:59.691Z,9.05
2023-04-09T04:10:27.432Z,9.05
2023-04-09T04:12:55.288Z,9.06
2023-04-09T04:15:23.029Z,9.07
2023-04-09T04:17:50.865Z,9.05
2023-04-09T04:20:20.400Z,9.06
2023-04-09T04:22:48.183Z,9.06
2023-04-09T04:25:16.003Z,9.07
2023-04-09T04:27:43.797Z,9.08
2023-04-09T04:30:11.847Z,9.06
2023-04-09T04:32:39.626Z,9.06
2023-04-09T04:35:07.915Z,9.06
2023-04-09T04:37:37.079Z,9.10
2023-04-09T04:40:05.466Z,9.08
2023-04-09T04:42:33.194Z,9.06
2023-04-09T04:45:01.243Z,9.05
2023-04-09T04:47:29.046Z,9.05
2023-04-09T04:49:56.791Z,9.06
2023-04-09T04:52:24.589Z,9.04
2023-04-09T04:54:53.768Z,9.03
2023-04-09T04:57:21.558Z,9.04
2023-04-09T04:59:49.310Z,9.06
2023-04-09T05:02:17.162Z,9.07
2023-04-09T05:04:44.902Z,9.05
2023-04-09T05:07:12.640Z,9.05
2023-04-09T05:09:42.917Z,9.07
2023-04-09T05:12:12.086Z,9.08
2023-04-09T05:14:39.854Z,9.07
2023-04-09T05:17:07.571Z,9.08
2023-04-09T05:19:35.356Z,9.07
2023-04-09T05:22:03.136Z,9.08
2023-04-09T05:24:30.822Z,9.06
2023-04-09T05:26:58.561Z,9.10
2023-04-09T05:29:27.831Z,9.05
2023-04-09T05:31:55.866Z,9.03
2023-04-09T05:34:23.635Z,9.05
2023-04-09T05:36:51.326Z,9.08
2023-04-09T05:39:19.062Z,9.10
2023-04-09T05:41:46.824Z,9.11
2023-04-09T05:44:14.515Z,9.13
2023-04-09T05:46:43.619Z,9.12
2023-04-09T05:49:11.566Z,9.12
2023-04-09T05:51:39.352Z,9.12
2023-04-09T05:54:07.098Z,9.13
2023-04-09T05:56:35.180Z,9.12
2023-04-09T05:59:03.022Z,9.11
2023-04-09T06:01:30.799Z,9.10
2023-04-09T06:04:00.362Z,9.13
2023-04-09T06:06:28.396Z,9.13
2023-04-09T06:08:56.146Z,9.14
2023-04-09T06:11:23.876Z,9.16
2023-04-09T06:13:52.673Z,9.18
2023-04-09T06:16:20.763Z,9.19
2023-04-09T06:18:50.977Z,9.21
2023-04-09T06:21:20.075Z,9.19
2023-04-09T06:23:47.947Z,9.20
2023-04-09T06:26:15.644Z,9.20
2023-04-09T06:28:43.878Z,9.19
2023-04-09T06:31:12.219Z,9.18
2023-04-09T06:33:40.024Z,9.16
2023-04-09T06:36:08.628Z,9.17
2023-04-09T06:38:37.752Z,9.20
2023-04-09T06:41:08.445Z,9.21
2023-04-09T06:43:37.431Z,9.20
2023-04-09T06:46:05.284Z,9.20
2023-04-09T06:48:33.161Z,9.21
2023-04-09T06:51:01.029Z,9.24
2023-04-09T06:53:28.784Z,9.25
2023-04-09T06:55:57.920Z,9.24
2023-04-09T06:58:25.690Z,9.25
2023-04-09T07:00:53.431Z,9.25
2023-04-09T07:03:21.480Z,9.24
2023-04-09T07:05:49.713Z,9.27
2023-04-09T07:08:17.509Z,9.25
2023-04-09T07:10:47.300Z,9.26
2023-04-09T07:13:16.665Z,9.28
2023-04-09T07:15:44.572Z,9.32
2023-04-09T07:18:12.397Z,9.32
2023-04-09T07:20:40.233Z,9.33
2023-04-09T07:23:07.956Z,9.36
2023-04-09T07:25:35.721Z,9.35
2023-04-09T07:28:03.541Z,9.37
2023-04-09T07:30:32.878Z,9.35
2023-04-09T07:33:00.733Z,9.33
2023-04-09T07:35:28.528Z,9.33
2023-04-09T07:37:57.289Z,9.33
2023-04-09T07:40:25.251Z,9.37
2023-04-09T07:42:53.326Z,9.40
2023-04-09T07:45:21.205Z,9.37
2023-04-09T07:47:50.441Z,9.36
2023-04-09T07:50:18.308Z,9.34
2023-04-09T07:52:46.184Z,9.31
2023-04-09T07:55:13.919Z,9.31
2023-04-09T07:57:43.076Z,9.35
2023-04-09T08:00:12.240Z,9.37
2023-04-09T08:02:40.117Z,9.38
2023-04-09T08:05:10.648Z,9.37
2023-04-09T08:07:38.455Z,9.39
2023-04-09T08:10:07.641Z,9.31
2023-04-09T08:12:35.400Z,9.34
2023-04-09T08:15:03.991Z,9.37
2023-04-09T08:17:31.973Z,9.37
2023-04-09T08:19:59.752Z,9.38
2023-04-09T08:22:28.902Z,9.34
2023-04-09T08:24:58.454Z,9.33
2023-04-09T08:27:27.396Z,9.36
2023-04-09T08:29:55.228Z,9.35
2023-04-09T08:32:23.054Z,9.37
2023-04-09T08:34:51.019Z,9.39
2023-04-09T08:37:18.762Z,9.43
2023-04-09T08:39:47.867Z,9.48
2023-04-09T08:42:16.189Z,9.55
2023-04-09T08:44:44.963Z,9.58
2023-04-09T08:47:13.105Z,9.62
2023-04-09T08:49:41.880Z,9.65
2023-04-09T08:52:09.716Z,9.68
2023-04-09T08:54:37.526Z,9.73
2023-04-09T08:57:09.540Z,9.82
2023-04-09T08:59:37.993Z,9.84
2023-04-09T09:02:09.923Z,9.89
2023-04-09T09:04:48.157Z,9.98
2023-04-09T09:07:16.561Z,9.97
2023-04-09T09:09:55.714Z,10.00
2023-04-09T09:12:39.254Z,10.06
2023-04-09T09:15:26.807Z,10.16
2023-04-09T09:17:56.985Z,10.21
2023-04-09T09:20:25.821Z,10.23
2023-04-09T09:22:55.942Z,10.26
2023-04-09T09:25:25.778Z,10.33
2023-04-09T09:27:55.825Z,10.44
2023-04-09T09:30:25.111Z,10.58
2023-04-09T09:32:54.828Z,10.63
2023-04-09T09:35:23.462Z,10.65
2023-04-09T09:38:03.114Z,10.67
2023-04-09T09:40:30.954Z,10.76
2023-04-09T09:43:00.074Z,10.86
2023-04-09T09:45:28.973Z,10.96
2023-04-09T09:47:57.002Z,11.10
2023-04-09T09:50:26.424Z,11.18
2023-04-09T09:53:00.622Z,11.25
2023-04-09T09:55:30.538Z,11.32
2023-04-09T09:58:03.612Z,11.38
2023-04-09T10:00:33.910Z,11.55
2023-04-09T10:03:13.321Z,11.60
2023-04-09T10:05:42.435Z,11.69
2023-04-09T10:08:11.631Z,11.80
2023-04-09T10:10:42.574Z,11.93
2023-04-09T10:13:21.284Z,12.06
2023-04-09T10:15:50.197Z,12.23
2023-04-09T10:18:19.395Z,12.35
2023-04-09T10:20:52.622Z,12.43
2023-04-09T10:23:28.406Z,12.60
2023-04-09T10:25:56.471Z,12.66
2023-04-09T10:28:25.697Z,12.81
2023-04-09T10:30:55.705Z,13.02
2023-04-09T10:33:26.716Z,13.14
2023-04-09T10:35:55.691Z,13.25
2023-04-09T10:38:37.415Z,13.26
2023-04-09T10:41:15.395Z,13.24
2023-04-09T10:43:48.163Z,13.36
2023-04-09T10:46:29.932Z,13.56
2023-04-09T10:49:11.332Z,13.73
2023-04-09T10:51:40.614Z,13.75
2023-04-09T10:54:43.998Z,13.75
2023-04-09T10:57:13.730Z,13.71
2023-04-09T10:59:45.120Z,13.70
2023-04-09T11:02:39.641Z,13.81
2023-04-09T11:05:19.443Z,14.08
2023-04-09T11:07:50.635Z,14.37
2023-04-09T11:10:18.572Z,14.61
2023-04-09T11:12:48.086Z,14.79
2023-04-09T11:15:21.208Z,14.98
2023-04-09T11:17:49.755Z,15.17
2023-04-09T11:20:20.687Z,15.32
2023-04-09T11:22:48.776Z,15.47
2023-04-09T11:25:20.799Z,15.67
2023-04-09T11:27:48.652Z,15.76
2023-04-09T11:30:16.613Z,15.86
2023-04-09T11:32:45.891Z,16.06
2023-04-09T11:35:15.905Z,16.14
2023-04-09T11:37:46.360Z,16.17
2023-04-09T11:40:18.722Z,16.10
2023-04-09T11:42:47.310Z,16.05
2023-04-09T11:45:16.882Z,15.93
2023-04-09T11:47:46.654Z,15.79
2023-04-09T11:50:16.145Z,15.69
2023-04-09T11:52:44.529Z,15.61
2023-04-09T11:55:12.845Z,15.66
2023-04-09T11:57:42.963Z,15.72
2023-04-09T12:00:13.484Z,15.66
2023-04-09T12:02:43.434Z,15.73
2023-04-09T12:05:14.677Z,15.96
2023-04-09T12:07:55.436Z,16.01
2023-04-09T12:10:28.648Z,15.76
2023-04-09T12:12:57.088Z,15.64
2023-04-09T12:15:26.137Z,15.63
2023-04-09T12:17:56.491Z,15.73
2023-04-09T12:20:37.325Z,15.99
2023-04-09T12:23:07.011Z,16.24
2023-04-09T12:25:36.683Z,16.30
2023-04-09T12:28:05.654Z,16.22
2023-04-09T12:30:34.172Z,16.05
2023-04-09T12:33:02.529Z,15.98
2023-04-09T12:35:30.444Z,15.90
2023-04-09T12:38:00.701Z,15.83
2023-04-09T12:40:28.706Z,15.89
2023-04-09T12:42:56.576Z,15.94
2023-04-09T12:45:24.395Z,16.19
2023-04-09T12:47:53.002Z,16.53
2023-04-09T12:50:20.886Z,16.67
2023-04-09T12:52:48.975Z,16.63
2023-04-09T12:55:18.296Z,16.72
2023-04-09T12:57:47.652Z,16.79
2023-04-09T13:00:16.479Z,16.79
2023-04-09T13:02:44.420Z,16.72
2023-04-09T13:05:14.702Z,16.63
2023-04-09T13:07:43.491Z,16.78
2023-04-09T13:10:12.062Z,16.94
2023-04-09T13:12:41.326Z,17.03
2023-04-09T13:15:09.324Z,17.14
2023-04-09T13:17:37.125Z,17.22
2023-04-09T13:20:05.602Z,17.18
2023-04-09T13:22:36.160Z,17.23
2023-04-09T13:25:05.061Z,17.28
2023-04-09T13:27:32.878Z,17.31
2023-04-09T13:30:02.003Z,17.26
2023-04-09T13:32:29.928Z,17.22
2023-04-09T13:34:58.042Z,17.22
2023-04-09T13:37:26.045Z,17.08
2023-04-09T13:39:53.789Z,17.05
2023-04-09T13:42:21.511Z,17.21
2023-04-09T13:44:49.285Z,17.36
2023-04-09T13:47:19.020Z,17.43
2023-04-09T13:49:46.869Z,17.59
2023-04-09T13:52:15.383Z,17.73
2023-04-09T13:54:43.149Z,17.67
2023-04-09T13:57:11.409Z,17.67
2023-04-09T13:59:41.637Z,17.76
2023-04-09T14:02:10.311Z,17.68
2023-04-09T14:04:39.648Z,17.54
2023-04-09T14:07:07.585Z,17.28
2023-04-09T14:09:35.324Z,17.22
2023-04-09T14:12:03.133Z,17.25
2023-04-09T14:14:30.927Z,17.30
2023-04-09T14:16:58.713Z,17.29
2023-04-09T14:19:26.500Z,17.25
2023-04-09T14:21:56.009Z,17.19
2023-04-09T14:24:23.873Z,17.28
2023-04-09T14:26:53.440Z,17.33
2023-04-09T14:29:22.126Z,17.39
2023-04-09T14:31:50.042Z,17.42
2023-04-09T14:34:17.907Z,17.31
2023-04-09T14:36:45.707Z,17.20
2023-04-09T14:39:14.873Z,17.08
2023-04-09T14:41:42.704Z,17.06
2023-04-09T14:44:10.475Z,17.11
2023-04-09T14:46:38.303Z,17.15
2023-04-09T14:49:06.357Z,17.12
2023-04-09T14:51:34.294Z,17.16
2023-04-09T14:54:02.652Z,17.19
2023-04-09T14:56:31.810Z,17.11
2023-04-09T14:58:59.975Z,17.08
2023-04-09T15:01:28.181Z,17.09
2023-04-09T15:03:56.355Z,17.11
2023-04-09T15:06:24.226Z,17.13
2023-04-09T15:08:52.327Z,17.07
2023-04-09T15:11:23.384Z,16.95
2023-04-09T15:13:52.702Z,16.89
2023-04-09T15:16:25.877Z,16.84
2023-04-09T15:18:55.706Z,16.82
2023-04-09T15:21:23.835Z,16.77
2023-04-09T15:23:52.351Z,16.68
2023-04-09T15:26:20.754Z,16.65
2023-04-09T15:28:49.057Z,16.62
2023-04-09T15:31:20.049Z,16.52
2023-04-09T15:33:48.266Z,16.47
2023-04-09T15:36:16.112Z,16.43
2023-04-09T15:38:43.900Z,16.44
2023-04-09T15:41:11.687Z,16.49
2023-04-09T15:43:39.463Z,16.44
2023-04-09T15:46:11.223Z,16.42
2023-04-09T15:48:40.390Z,16.44
2023-04-09T15:51:08.399Z,16.43
2023-04-09T15:53:36.204Z,16.38
2023-04-09T15:56:05.477Z,16.33
2023-04-09T15:58:33.529Z,16.34
2023-04-09T16:01:01.426Z,16.32
2023-04-09T16:03:29.377Z,16.27
2023-04-09T16:06:01.645Z,16.22
2023-04-09T16:08:29.426Z,16.20
2023-04-09T16:10:57.231Z,16.17
2023-04-09T16:13:25.157Z,16.12
2023-04-09T16:15:53.176Z,16.11
2023-04-09T16:18:21.213Z,16.07
2023-04-09T16:20:49.038Z,15.98
2023-04-09T16:23:18.277Z,15.98
2023-04-09T16:25:46.084Z,16.03
2023-04-09T16:28:14.193Z,16.01
2023-04-09T16:30:42.099Z,16.01
2023-04-09T16:33:10.027Z,15.95
2023-04-09T16:35:39.591Z,15.95
2023-04-09T16:38:07.985Z,15.97
2023-04-09T16:40:37.327Z,15.94
2023-04-09T16:43:05.311Z,15.92
2023-04-09T16:45:33.189Z,15.91
2023-04-09T16:48:01.006Z,15.86
2023-04-09T16:50:28.900Z,15.77
2023-04-09T16:52:56.686Z,15.74
2023-04-09T16:55:24.644Z,15.78
2023-04-09T16:57:56.037Z,15.77
2023-04-09T17:00:23.949Z,15.73
2023-04-09T17:02:52.122Z,15.72
2023-04-09T17:05:20.355Z,15.71
2023-04-09T17:07:48.245Z,15.63
2023-04-09T17:10:16.432Z,15.64
2023-04-09T17:12:44.376Z,15.52
2023-04-09T17:15:13.882Z,15.48
2023-04-09T17:17:41.789Z,15.45
2023-04-09T17:20:10.603Z,15.41
2023-04-09T17:22:39.292Z,15.45
2023-04-09T17:25:08.556Z,15.43
2023-04-09T17:27:36.626Z,15.40
2023-04-09T17:30:05.031Z,15.39
2023-04-09T17:32:34.279Z,15.37
2023-04-09T17:35:03.647Z,15.37
2023-04-09T17:37:31.467Z,15.31
2023-04-09T17:39:59.279Z,15.29
2023-04-09T17:42:27.373Z,15.27
2023-04-09T17:44:55.094Z,15.23
2023-04-09T17:47:23.043Z,15.19
2023-04-09T17:49:53.162Z,15.13
2023-04-09T17:52:21.264Z,15.08
2023-04-09T17:54:50.637Z,15.02
2023-04-09T17:57:18.460Z,14.95
2023-04-09T17:59:46.267Z,14.87
2023-04-09T18:02:14.233Z,14.80
2023-04-09T18:04:42.382Z,14.78
2023-04-09T18:07:11.687Z,14.77
2023-04-09T18:09:40.560Z,14.71
2023-04-09T18:12:08.473Z,14.69
2023-04-09T18:14:36.311Z,14.68
2023-04-09T18:17:04.151Z,14.65
2023-04-09T18:19:32.128Z,14.64
2023-04-09T18:21:59.932Z,14.60
2023-04-09T18:24:29.306Z,14.59
2023-04-09T18:26:57.643Z,14.54
2023-04-09T18:29:27.179Z,14.50
2023-04-09T18:31:55.820Z,14.49
2023-04-09T18:34:23.947Z,14.45
2023-04-09T18:36:51.854Z,14.38
2023-04-09T18:39:20.663Z,14.35
2023-04-09T18:41:49.990Z,14.29
2023-04-09T18:44:20.744Z,14.24
2023-04-09T18:46:48.589Z,14.14
2023-04-09T18:49:16.393Z,14.07
2023-04-09T18:51:44.356Z,13.98
2023-04-09T18:54:12.182Z,13.93
2023-04-09T18:56:39.925Z,13.91
2023-04-09T18:59:09.241Z,13.86
2023-04-09T19:01:37.069Z,13.82
2023-04-09T19:04:04.976Z,13.74
2023-04-09T19:06:33.193Z,13.70
2023-04-09T19:09:01.219Z,13.65
2023-04-09T19:11:29.423Z,13.57
2023-04-09T19:13:57.281Z,13.55
2023-04-09T19:16:26.489Z,13.51
2023-04-09T19:18:54.476Z,13.48
2023-04-09T19:21:22.520Z,13.43
2023-04-09T19:23:50.328Z,13.37
2023-04-09T19:26:18.237Z,13.32
2023-04-09T19:28:46.908Z,13.29
2023-04-09T19:31:15.175Z,13.25
2023-04-09T19:33:44.313Z,13.18
2023-04-09T19:36:13.018Z,13.11
2023-04-09T19:38:40.980Z,13.09
2023-04-09T19:41:11.339Z,13.06
2023-04-09T19:43:39.426Z,12.97
2023-04-09T19:46:08.429Z,12.89
2023-04-09T19:48:36.271Z,12.82
2023-04-09T19:51:05.660Z,12.74
2023-04-09T19:53:33.561Z,12.71
2023-04-09T19:56:01.421Z,12.64
2023-04-09T19:58:29.317Z,12.58
2023-04-09T20:00:57.127Z,12.52
2023-04-09T20:03:25.088Z,12.48
2023-04-09T20:05:53.531Z,12.45
2023-04-09T20:08:22.670Z,12.41
2023-04-09T20:10:50.661Z,12.40
2023-04-09T20:13:18.421Z,12.38
2023-04-09T20:15:46.178Z,12.35
2023-04-09T20:18:13.983Z,12.34
2023-04-09T20:20:41.759Z,12.31
2023-04-09T20:23:09.572Z,12.26
2023-04-09T20:25:38.716Z,12.24
2023-04-09T20:28:06.563Z,12.19
2023-04-09T20:30:34.408Z,12.17
2023-04-09T20:33:02.367Z,12.16
2023-04-09T20:35:30.148Z,12.16
2023-04-09T20:37:57.928Z,12.13
2023-04-09T20:40:25.900Z,12.10
2023-04-09T20:42:55.082Z,12.08
2023-04-09T20:45:22.926Z,12.04
2023-04-09T20:47:51.992Z,12.00
2023-04-09T20:50:20.484Z,11.99
2023-04-09T20:52:49.595Z,11.95
2023-04-09T20:55:17.622Z,11.93
2023-04-09T20:57:45.414Z,11.88
2023-04-09T21:00:15.225Z,11.87
2023-04-09T21:02:43.131Z,11.85
2023-04-09T21:05:21.816Z,11.79
2023-04-09T21:07:51.198Z,11.75
2023-04-09T21:10:19.120Z,11.74
2023-04-09T21:12:46.925Z,11.68
2023-04-09T21:15:16.273Z,11.66
2023-04-09T21:17:44.089Z,11.64
2023-04-09T21:20:12.667Z,11.61
2023-04-09T21:22:40.478Z,11.56
2023-04-09T21:25:08.894Z,11.51
2023-04-09T21:27:36.705Z,11.50
2023-04-09T21:30:04.847Z,11.50
2023-04-09T21:32:33.992Z,11.47
2023-04-09T21:35:01.780Z,11.47
2023-04-09T21:37:31.952Z,11.46
2023-04-09T21:39:59.775Z,11.42
2023-04-09T21:42:27.602Z,11.37
2023-04-09T21:44:55.328Z,11.36
2023-04-09T21:47:23.700Z,11.27
2023-04-09T21:49:52.945Z,11.24
2023-04-09T21:52:20.688Z,11.18
2023-04-09T21:54:48.461Z,11.14
2023-04-09T21:57:16.224Z,11.12
2023-04-09T21:59:44.059Z,11.07
2023-04-09T22:02:11.981Z,11.04
2023-04-09T22:04:42.537Z,11.02
2023-04-09T22:07:12.437Z,11.02
2023-04-09T22:09:40.369Z,10.98
2023-04-09T22:12:08.556Z,10.93
2023-04-09T22:14:36.351Z,10.92
2023-04-09T22:17:04.233Z,10.89
2023-04-09T22:19:33.064Z,10.87
2023-04-09T22:22:00.878Z,10.83
2023-04-09T22:24:30.499Z,10.81
2023-04-09T22:26:59.870Z,10.80
2023-04-09T22:29:27.994Z,10.76
2023-04-09T22:31:55.979Z,10.74
2023-04-09T22:34:23.733Z,10.69
2023-04-09T22:36:51.622Z,10.66
2023-04-09T22:39:19.457Z,10.62
2023-04-09T22:41:48.636Z,10.57
2023-04-09T22:44:16.500Z,10.52
2023-04-09T22:46:44.320Z,10.50
2023-04-09T22:49:12.369Z,10.52
2023-04-09T22:51:41.763Z,10.48
2023-04-09T22:54:09.790Z,10.43
2023-04-09T22:56:37.739Z,10.41
2023-04-09T22:59:07.154Z,10.40
2023-04-09T23:01:35.620Z,10.40
2023-04-09T23:04:03.494Z,10.39
2023-04-09T23:06:32.004Z,10.37
2023-04-09T23:08:59.995Z,10.34
2023-04-09T23:11:28.262Z,10.29
2023-04-09T23:13:56.054Z,10.25
2023-04-09T23:16:26.288Z,10.20
2023-04-09T23:18:54.505Z,10.20
2023-04-09T23:21:22.444Z,10.20
2023-04-09T23:23:50.334Z,10.18
2023-04-09T23:26:18.081Z,10.16
2023-04-09T23:28:45.828Z,10.11
2023-04-09T23:31:13.574Z,10.10
2023-04-09T23:33:42.783Z,10.08
2023-04-09T23:36:10.898Z,10.07
2023-04-09T23:38:40.375Z,10.05
2023-04-09T23:41:08.310Z,10.00
2023-04-09T23:43:36.129Z,9.96
2023-04-09T23:46:03.872Z,9.89
2023-04-09T23:48:31.617Z,9.85
2023-04-09T23:51:00.742Z,9.77
2023-04-09T23:53:28.538Z,9.73
2023-04-09T23:55:56.293Z,9.69
2023-04-09T23:58:24.091Z,9.64
